Time,TemperatureF,DewpointF,PressureIn,WindDirection,WindDirectionDegrees,WindSpeedMPH,WindSpeedGustMPH,Humidity,HourlyPrecipIn,Conditions,Clouds,dailyrainin,SoftwareType,DateUTC
2013-04-17 00:02:00,74.3,59.0,29.96,SSE,157,0.0,0.0,59,0.00,CLR,,0.00,WeatherDisplay:10.37,2013-04-17 05:02:00,
2013-04-17 00:07:00,74.1,58.9,29.96,South,182,0.0,3.5,59,0.00,CLR,,0.00,WeatherDisplay:10.37,2013-04-17 05:07:00,
2013-04-17 00:12:00,74.1,58.9,29.96,South,175,0.0,0.0,59,0.00,CLR,,0.00,WeatherDisplay:10.37,2013-04-17 05:12:00,
2013-04-17 00:17:00,74.1,58.9,29.96,SSE,164,3.6,5.8,59,0.00,CLR,,0.00,WeatherDisplay:10.37,2013-04-17 05:17:00,
2013-04-17 00:22:00,74.1,58.9,29.96,SSE,165,2.2,5.8,59,0.00,CLR,,0.00,WeatherDisplay:10.37,2013-04-17 05:22:00,
2013-04-17 00:27:00,73.9,58.7,29.96,SSW,196,2.7,3.5,59,0.00,CLR,,0.00,WeatherDisplay:10.37,2013-04-17 05:27:00,
2013-04-17 00:32:00,73.8,58.5,29.96,South,171,3.6,4.6,59,0.00,CLR,,0.00,WeatherDisplay:10.37,2013-04-17 05:32:00,
2013-04-17 00:37:00,73.8,58.5,29.96,South,181,4.0,5.8,59,0.00,CLR,,0.00,WeatherDisplay:10.37,2013-04-17 05:37:00,
2013-04-17 00:42:00,73.6,58.4,29.96,South,171,2.7,3.5,59,0.00,CLR,,0.00,WeatherDisplay:10.37,2013-04-17 05:42:00,
2013-04-17 00:47:00,73.6,58.8,29.96,South,191,0.0,3.5,60,0.00,CLR,,0.00,WeatherDisplay:10.37,2013-04-17 05:47:00,
2013-04-17 00:52:00,73.6,58.8,29.96,SSE,150,3.6,5.8,60,0.00,CLR,,0.00,WeatherDisplay:10.37,2013-04-17 05:52:00,
2013-04-17 00:57:00,73.6,58.8,29.96,SSE,152,0.0,3.5,60,0.00,CLR,,0.00,WeatherDisplay:10.37,2013-04-17 05:57:00,
2013-04-17 01:02:00,73.4,58.7,29.96,SSE,155,2.2,5.8,60,0.00,CLR,,0.00,WeatherDisplay:10.37,2013-04-17 06:02:00,
2013-04-17 01:07:00,73.4,59.1,29.96,South,190,0.0,0.0,61,0.00,CLR,,0.00,WeatherDisplay:10.37,2013-04-17 06:07:00,
2013-04-17 01:12:00,73.0,58.8,29.96,South,189,0.0,0.0,61,0.00,CLR,,0.00,WeatherDisplay:10.37,2013-04-17 06:12:00,
2013-04-17 01:17:00,72.9,58.6,29.96,South,189,0.0,0.0,61,0.00,CLR,,0.00,WeatherDisplay:10.37,2013-04-17 06:17:00,
2013-04-17 01:22:00,72.0,56.8,29.96,ENE,72,3.6,4.0,59,0.00,CLR,,0.00,WeatherDisplay:10.37,2013-04-17 06:22:00,
2013-04-17 01:27:00,70.7,55.7,29.96,East,101,2.7,3.5,59,0.00,CLR,,0.00,WeatherDisplay:10.37,2013-04-17 06:27:00,
2013-04-17 01:32:00,69.8,54.8,29.96,ENE,78,3.6,4.6,59,0.00,CLR,,0.00,WeatherDisplay:10.37,2013-04-17 06:32:00,
2013-04-17 01:37:00,68.9,54.4,29.96,East,90,3.1,3.5,60,0.00,CLR,,0.00,WeatherDisplay:10.37,2013-04-17 06:37:00,
2013-04-17 01:42:00,68.2,53.8,29.96,East,90,2.2,3.5,60,0.00,CLR,,0.00,WeatherDisplay:10.37,2013-04-17 06:42:00,
2013-04-17 01:47:00,67.8,53.9,29.96,East,88,2.2,3.5,61,0.00,CLR,,0.00,WeatherDisplay:10.37,2013-04-17 06:47:00,
2013-04-17 01:52:00,67.6,53.7,29.96,East,88,2.2,2.3,61,0.00,CLR,,0.00,WeatherDisplay:10.37,2013-04-17 06:52:00,
2013-04-17 01:57:00,67.3,53.4,29.96,East,88,3.1,3.5,61,0.00,CLR,,0.00,WeatherDisplay:10.37,2013-04-17 06:57:00,
2013-04-17 02:02:00,66.9,53.0,29.96,ESE,122,0.0,0.0,61,0.00,CLR,,0.00,WeatherDisplay:10.37,2013-04-17 07:02:00,
2013-04-17 02:07:00,66.6,52.7,29.96,ESE,122,0.0,0.0,61,0.00,CLR,,0.00,WeatherDisplay:10.37,2013-04-17 07:07:00,
2013-04-17 02:12:00,66.4,53.0,29.96,ESE,122,2.2,3.5,62,0.00,CLR,,0.00,WeatherDisplay:10.37,2013-04-17 07:12:00,
2013-04-17 02:17:00,66.2,52.8,29.96,ESE,122,0.0,0.0,62,0.00,CLR,,0.00,WeatherDisplay:10.37,2013-04-17 07:17:00,
2013-04-17 02:22:00,66.2,53.2,29.96,ESE,122,0.0,0.0,63,0.00,CLR,,0.00,WeatherDisplay:10.37,2013-04-17 07:22:00,
2013-04-17 02:27:00,66.0,53.1,29.96,ESE,122,0.0,0.0,63,0.00,CLR,,0.00,WeatherDisplay:10.37,2013-04-17 07:27:00,
2013-04-17 02:32:00,65.7,53.1,29.96,East,82,2.7,3.5,64,0.00,CLR,,0.00,WeatherDisplay:10.37,2013-04-17 07:32:00,
2013-04-17 02:37:00,65.5,53.0,29.96,East,82,2.2,3.5,64,0.00,CLR,,0.00,WeatherDisplay:10.37,2013-04-17 07:37:00,
2013-04-17 02:42:00,65.3,52.8,29.96,East,82,0.0,0.0,64,0.00,CLR,,0.00,WeatherDisplay:10.37,2013-04-17 07:42:00,
2013-04-17 02:47:00,64.9,52.5,29.96,East,82,0.0,2.3,64,0.00,CLR,,0.00,WeatherDisplay:10.37,2013-04-17 07:47:00,
2013-04-17 02:52:00,64.6,52.1,29.96,ENE,69,2.2,4.0,64,0.00,CLR,,0.00,WeatherDisplay:10.37,2013-04-17 07:52:00,
2013-04-17 02:57:00,64.2,52.2,29.96,ENE,67,3.1,4.6,65,0.00,CLR,,0.00,WeatherDisplay:10.37,2013-04-17 07:57:00,
2013-04-17 03:02:00,64.0,52.0,29.96,ENE,71,4.0,4.6,65,0.00,CLR,,0.00,WeatherDisplay:10.37,2013-04-17 08:02:00,
2013-04-17 03:07:00,63.9,51.9,29.96,ENE,63,2.7,3.5,65,0.00,CLR,,0.00,WeatherDisplay:10.37,2013-04-17 08:07:00,
2013-04-17 03:12:00,63.7,52.1,29.96,ENE,63,0.0,0.0,66,0.00,CLR,,0.00,WeatherDisplay:10.37,2013-04-17 08:12:00,
2013-04-17 03:17:00,63.5,51.9,29.96,ENE,63,0.0,0.0,66,0.00,CLR,,0.00,WeatherDisplay:10.37,2013-04-17 08:17:00,
2013-04-17 03:22:00,63.3,51.8,29.96,ENE,63,0.0,0.0,66,0.00,CLR,,0.00,WeatherDisplay:10.37,2013-04-17 08:22:00,
2013-04-17 03:27:00,63.1,51.6,29.96,ENE,74,2.7,3.5,66,0.00,CLR,,0.00,WeatherDisplay:10.37,2013-04-17 08:27:00,
2013-04-17 03:32:00,63.0,51.4,29.96,ENE,75,2.2,2.3,66,0.00,CLR,,0.00,WeatherDisplay:10.37,2013-04-17 08:32:00,
2013-04-17 03:37:00,63.0,51.4,29.96,ENE,75,0.0,2.7,66,0.00,CLR,,0.00,WeatherDisplay:10.37,2013-04-17 08:37:00,
2013-04-17 03:42:00,62.6,51.5,29.96,East,83,2.2,2.3,67,0.00,CLR,,0.00,WeatherDisplay:10.37,2013-04-17 08:42:00,
2013-04-17 03:47:00,62.6,51.5,29.96,East,83,2.2,2.3,67,0.00,CLR,,0.00,WeatherDisplay:10.37,2013-04-17 08:47:00,
2013-04-17 03:52:00,62.6,51.5,29.96,East,88,0.0,0.0,67,0.00,CLR,,0.00,WeatherDisplay:10.37,2013-04-17 08:52:00,
2013-04-17 03:57:00,62.4,51.7,29.96,East,88,0.0,0.0,68,0.00,CLR,,0.00,WeatherDisplay:10.37,2013-04-17 08:57:00,
2013-04-17 04:02:00,62.2,51.5,29.96,East,81,0.0,0.0,68,0.00,CLR,,0.00,WeatherDisplay:10.37,2013-04-17 09:02:00,
2013-04-17 04:07:00,62.1,51.4,29.96,East,81,0.0,2.3,68,0.00,CLR,,0.00,WeatherDisplay:10.37,2013-04-17 09:07:00,
2013-04-17 04:12:00,62.1,51.8,29.96,East,86,2.7,3.5,69,0.00,CLR,,0.00,WeatherDisplay:10.37,2013-04-17 09:12:00,
2013-04-17 04:17:00,62.1,51.8,29.96,East,94,2.2,2.3,69,0.00,CLR,,0.00,WeatherDisplay:10.37,2013-04-17 09:17:00,
2013-04-17 04:22:00,61.9,51.6,29.96,ENE,78,3.1,3.5,69,0.00,CLR,,0.00,WeatherDisplay:10.37,2013-04-17 09:22:00,
2013-04-17 04:27:00,61.9,51.6,29.96,ENE,75,2.7,3.5,69,0.00,CLR,,0.00,WeatherDisplay:10.37,2013-04-17 09:27:00,
2013-04-17 04:32:00,61.9,52.0,29.96,ENE,75,0.0,0.0,70,0.00,CLR,,0.00,WeatherDisplay:10.37,2013-04-17 09:32:00,
2013-04-17 04:37:00,61.9,52.0,29.96,ENE,78,0.0,3.5,70,0.00,CLR,,0.00,WeatherDisplay:10.37,2013-04-17 09:37:00,
2013-04-17 04:42:00,62.1,52.2,29.96,ENE,78,0.0,0.0,70,0.00,CLR,,0.00,WeatherDisplay:10.37,2013-04-17 09:42:00,
2013-04-17 04:47:00,62.1,52.2,29.96,ENE,78,2.7,3.5,70,0.00,CLR,,0.00,WeatherDisplay:10.37,2013-04-17 09:47:00,
2013-04-17 04:52:00,62.1,52.2,29.96,ENE,78,2.2,3.5,70,0.00,CLR,,0.00,WeatherDisplay:10.37,2013-04-17 09:52:00,
2013-04-17 04:57:00,61.9,52.0,29.96,ENE,78,0.0,3.5,70,0.00,CLR,,0.00,WeatherDisplay:10.37,2013-04-17 09:57:00,
2013-04-17 05:02:00,61.7,51.8,29.96,ENE,78,2.2,2.3,70,0.00,CLR,,0.00,WeatherDisplay:10.37,2013-04-17 10:02:00,
2013-04-17 05:07:00,61.7,51.8,29.96,ENE,78,0.0,2.3,70,0.00,CLR,,0.00,WeatherDisplay:10.37,2013-04-17 10:07:00,
2013-04-17 05:12:00,61.5,51.6,29.96,ENE,78,0.0,0.0,70,0.00,CLR,,0.00,WeatherDisplay:10.37,2013-04-17 10:12:00,
2013-04-17 05:17:00,61.5,51.6,29.96,ENE,78,0.0,0.0,70,0.00,CLR,,0.00,WeatherDisplay:10.37,2013-04-17 10:17:00,
2013-04-17 05:22:00,61.5,51.6,29.99,ENE,78,0.0,0.0,70,0.00,CLR,,0.00,WeatherDisplay:10.37,2013-04-17 10:22:00,
2013-04-17 05:27:00,61.5,51.6,29.99,ENE,78,0.0,0.0,70,0.00,CLR,,0.00,WeatherDisplay:10.37,2013-04-17 10:27:00,
2013-04-17 05:32:00,61.5,51.6,29.99,ENE,78,2.2,3.5,70,0.00,CLR,,0.00,WeatherDisplay:10.37,2013-04-17 10:32:00,
2013-04-17 05:37:00,61.5,51.6,29.99,ENE,78,2.2,3.5,70,0.00,CLR,,0.00,WeatherDisplay:10.37,2013-04-17 10:37:00,
2013-04-17 05:42:00,61.5,52.0,29.99,ENE,74,0.0,0.0,71,0.00,CLR,,0.00,WeatherDisplay:10.37,2013-04-17 10:42:00,
2013-04-17 05:47:00,61.5,52.0,29.99,ENE,74,0.0,0.0,71,0.00,CLR,,0.00,WeatherDisplay:10.37,2013-04-17 10:47:00,
2013-04-17 05:52:00,61.5,52.0,29.99,ENE,74,0.0,0.0,71,0.00,CLR,,0.00,WeatherDisplay:10.37,2013-04-17 10:52:00,
2013-04-17 05:57:00,61.5,52.0,29.99,ENE,74,0.0,0.0,71,0.00,CLR,,0.00,WeatherDisplay:10.37,2013-04-17 10:57:00,
2013-04-17 06:02:00,61.5,52.0,29.99,ENE,74,0.0,0.0,71,0.00,CLR,,0.00,WeatherDisplay:10.37,2013-04-17 11:02:00,
2013-04-17 06:07:00,61.5,52.4,29.99,ENE,74,0.0,0.0,72,0.00,CLR,,0.00,WeatherDisplay:10.37,2013-04-17 11:07:00,
2013-04-17 06:12:00,61.5,52.4,29.99,ENE,74,0.0,0.0,72,0.00,CLR,,0.00,WeatherDisplay:10.37,2013-04-17 11:12:00,
2013-04-17 06:17:00,61.5,52.4,29.99,ENE,74,0.0,0.0,72,0.00,CLR,,0.00,WeatherDisplay:10.37,2013-04-17 11:17:00,
2013-04-17 06:22:00,61.5,52.4,29.99,ENE,74,0.0,0.0,72,0.00,CLR,,0.00,WeatherDisplay:10.37,2013-04-17 11:22:00,
2013-04-17 06:27:00,61.5,52.4,29.99,ENE,74,0.0,0.0,72,0.00,CLR,,0.00,WeatherDisplay:10.37,2013-04-17 11:27:00,
2013-04-17 06:32:00,61.7,52.6,29.99,ENE,74,0.0,0.0,72,0.00,CLR,,0.00,WeatherDisplay:10.37,2013-04-17 11:32:00,
2013-04-17 06:37:00,61.7,52.6,29.99,ENE,74,0.0,0.0,72,0.00,CLR,,0.00,WeatherDisplay:10.37,2013-04-17 11:37:00,
2013-04-17 06:42:00,61.7,52.6,29.99,ENE,74,0.0,0.0,72,0.00,CLR,,0.00,WeatherDisplay:10.37,2013-04-17 11:42:00,
2013-04-17 06:47:00,61.7,52.6,29.99,ENE,74,0.0,0.0,72,0.00,CLR,,0.00,WeatherDisplay:10.37,2013-04-17 11:47:00,
2013-04-17 06:52:00,61.9,52.8,29.99,ENE,74,0.0,0.0,72,0.00,CLR,,0.00,WeatherDisplay:10.37,2013-04-17 11:52:00,
2013-04-17 06:57:00,61.9,52.8,29.99,ENE,74,0.0,0.0,72,0.00,CLR,,0.00,WeatherDisplay:10.37,2013-04-17 11:57:00,
2013-04-17 07:02:00,61.9,52.8,29.99,ENE,74,0.0,0.0,72,0.00,CLR,,0.00,WeatherDisplay:10.37,2013-04-17 12:02:00,
2013-04-17 07:07:00,62.1,53.3,29.99,ENE,74,0.0,0.0,73,0.00,CLR,,0.00,WeatherDisplay:10.37,2013-04-17 12:07:00,
2013-04-17 07:12:00,62.2,53.5,29.99,ENE,74,0.0,0.0,73,0.00,CLR,,0.00,WeatherDisplay:10.37,2013-04-17 12:12:00,
2013-04-17 07:17:00,62.6,53.8,29.99,ENE,74,0.0,0.0,73,0.00,CLR,,0.00,WeatherDisplay:10.37,2013-04-17 12:17:00,
2013-04-17 07:22:00,63.0,54.2,29.99,ENE,74,0.0,0.0,73,0.00,CLR,,0.00,WeatherDisplay:10.37,2013-04-17 12:22:00,
2013-04-17 07:27:00,63.3,54.5,29.99,ENE,74,0.0,0.0,73,0.00,CLR,,0.00,WeatherDisplay:10.37,2013-04-17 12:27:00,
2013-04-17 07:32:00,63.5,54.7,29.99,ENE,74,0.0,0.0,73,0.00,CLR,,0.00,WeatherDisplay:10.37,2013-04-17 12:32:00,
2013-04-17 07:37:00,63.7,54.5,29.99,East,81,0.0,0.0,72,0.00,CLR,,0.00,WeatherDisplay:10.37,2013-04-17 12:37:00,
2013-04-17 07:42:00,63.9,54.7,29.99,ESE,110,0.0,0.0,72,0.00,CLR,,0.00,WeatherDisplay:10.37,2013-04-17 12:42:00,
2013-04-17 07:47:00,64.0,54.8,29.99,ESE,110,0.0,0.0,72,0.00,CLR,,0.00,WeatherDisplay:10.37,2013-04-17 12:47:00,
2013-04-17 07:52:00,63.9,54.3,29.99,ESE,110,0.0,0.0,71,0.00,CLR,,0.00,WeatherDisplay:10.37,2013-04-17 12:52:00,
2013-04-17 07:57:00,64.0,54.1,29.99,ESE,110,0.0,0.0,70,0.00,CLR,,0.00,WeatherDisplay:10.37,2013-04-17 12:57:00,
2013-04-17 08:02:00,64.0,54.1,29.99,ESE,110,0.0,2.3,70,0.00,CLR,,0.00,WeatherDisplay:10.37,2013-04-17 13:02:00,
2013-04-17 08:07:00,64.2,54.2,29.99,ESE,115,0.0,0.0,70,0.00,CLR,,0.00,WeatherDisplay:10.37,2013-04-17 13:07:00,
2013-04-17 08:12:00,64.4,54.0,29.99,ESE,119,2.2,2.7,69,0.00,CLR,,0.00,WeatherDisplay:10.37,2013-04-17 13:12:00,
2013-04-17 08:17:00,64.8,54.3,29.99,ESE,118,3.1,3.5,69,0.00,CLR,,0.00,WeatherDisplay:10.37,2013-04-17 13:17:00,
2013-04-17 08:22:00,65.1,54.7,29.99,ESE,117,0.0,0.0,69,0.00,CLR,,0.00,WeatherDisplay:10.37,2013-04-17 13:22:00,
2013-04-17 08:27:00,65.5,55.0,29.99,ESE,117,0.0,0.0,69,0.00,CLR,,0.00,WeatherDisplay:10.37,2013-04-17 13:27:00,
2013-04-17 08:32:00,66.0,55.2,29.99,ESE,111,0.0,2.3,68,0.00,CLR,,0.00,WeatherDisplay:10.37,2013-04-17 13:32:00,
2013-04-17 08:37:00,66.6,55.7,29.99,SE,130,0.0,2.3,68,0.00,CLR,,0.00,WeatherDisplay:10.37,2013-04-17 13:37:00,
2013-04-17 08:42:00,66.9,55.6,29.99,SE,127,0.0,2.3,67,0.00,CLR,,0.00,WeatherDisplay:10.37,2013-04-17 13:42:00,
2013-04-17 08:47:00,67.3,55.5,29.99,SE,126,0.0,2.3,66,0.00,CLR,,0.00,WeatherDisplay:10.37,2013-04-17 13:47:00,
2013-04-17 08:52:00,68.2,56.4,29.99,SE,140,0.0,2.3,66,0.00,CLR,,0.00,WeatherDisplay:10.37,2013-04-17 13:52:00,
2013-04-17 08:57:00,68.7,56.0,29.99,SE,134,0.0,3.5,64,0.00,CLR,,0.00,WeatherDisplay:10.37,2013-04-17 13:57:00,
2013-04-17 09:02:00,69.3,56.6,29.99,SE,134,0.0,0.0,64,0.00,CLR,,0.00,WeatherDisplay:10.37,2013-04-17 14:02:00,
2013-04-17 09:07:00,69.6,56.0,29.99,SSE,157,0.0,3.1,62,0.00,CLR,,0.00,WeatherDisplay:10.37,2013-04-17 14:07:00,
2013-04-17 09:12:00,69.8,56.2,29.99,South,178,2.2,4.6,62,0.00,CLR,,0.00,WeatherDisplay:10.37,2013-04-17 14:12:00,
2013-04-17 09:17:00,70.0,55.9,29.99,SSE,168,2.2,5.8,61,0.00,CLR,,0.00,WeatherDisplay:10.37,2013-04-17 14:17:00,
2013-04-17 09:22:00,70.3,56.2,29.99,South,170,3.1,3.5,61,0.00,CLR,,0.00,WeatherDisplay:10.37,2013-04-17 14:22:00,
2013-04-17 09:27:00,70.9,57.2,29.99,WSW,245,2.2,4.6,62,0.00,CLR,,0.00,WeatherDisplay:10.37,2013-04-17 14:27:00,
2013-04-17 09:32:00,72.0,57.8,29.99,SSE,151,4.0,5.8,61,0.00,CLR,,0.00,WeatherDisplay:10.37,2013-04-17 14:32:00,
2013-04-17 09:37:00,72.9,58.6,29.96,SSW,196,2.7,4.6,61,0.00,CLR,,0.00,WeatherDisplay:10.37,2013-04-17 14:37:00,
2013-04-17 09:42:00,73.6,58.4,29.96,SE,137,4.5,5.8,59,0.00,CLR,,0.00,WeatherDisplay:10.37,2013-04-17 14:42:00,
2013-04-17 09:47:00,73.9,58.2,29.96,South,188,4.9,5.8,58,0.00,CLR,,0.00,WeatherDisplay:10.37,2013-04-17 14:47:00,
2013-04-17 09:52:00,74.5,58.7,29.96,SE,133,5.4,9.2,58,0.00,CLR,,0.00,WeatherDisplay:10.37,2013-04-17 14:52:00,
2013-04-17 09:57:00,74.8,58.6,29.96,SSE,147,2.2,3.5,57,0.00,CLR,,0.00,WeatherDisplay:10.37,2013-04-17 14:57:00,
2013-04-17 10:02:00,75.4,59.1,29.96,ESE,118,4.5,6.9,57,0.00,CLR,,0.00,WeatherDisplay:10.37,2013-04-17 15:02:00,
2013-04-17 10:07:00,75.9,58.6,29.96,SSE,147,4.0,6.9,55,0.00,CLR,,0.00,WeatherDisplay:10.37,2013-04-17 15:07:00,
2013-04-17 10:12:00,76.6,58.7,29.96,South,172,3.6,5.8,54,0.00,CLR,,0.00,WeatherDisplay:10.37,2013-04-17 15:12:00,
2013-04-17 10:19:00,77.5,59.1,29.96,SW,229,4.5,8.1,53,0.00,CLR,,0.00,WeatherDisplay:10.37,2013-04-17 15:19:00,
2013-04-17 10:24:00,78.1,58.5,29.96,SSE,164,3.6,5.8,51,0.00,CLR,,0.00,WeatherDisplay:10.37,2013-04-17 15:24:00,
2013-04-17 10:29:00,78.6,58.4,29.96,South,169,4.5,4.5,50,0.00,CLR,,0.00,WeatherDisplay:10.37,2013-04-17 15:29:00,
2013-04-17 10:34:00,78.6,57.9,29.96,West,264,4.5,5.8,49,0.00,CLR,,0.00,WeatherDisplay:10.37,2013-04-17 15:34:00,
2013-04-17 10:39:00,78.1,57.4,29.96,SSE,160,5.4,8.1,49,0.00,CLR,,0.00,WeatherDisplay:10.37,2013-04-17 15:39:00,
2013-04-17 10:44:00,77.4,56.7,29.96,SSW,205,3.6,5.8,49,0.00,CLR,,0.00,WeatherDisplay:10.37,2013-04-17 15:44:00,
2013-04-17 10:49:00,76.6,56.6,29.96,SSW,209,3.1,5.8,50,0.00,CLR,,0.00,WeatherDisplay:10.37,2013-04-17 15:49:00,
2013-04-17 10:54:00,76.3,56.8,29.96,SW,222,4.0,8.1,51,0.00,CLR,,0.00,WeatherDisplay:10.37,2013-04-17 15:54:00,
2013-04-17 10:59:00,76.1,57.7,29.96,SSE,161,5.4,11.5,53,0.00,CLR,,0.00,WeatherDisplay:10.37,2013-04-17 15:59:00,
2013-04-17 11:04:00,76.6,59.3,29.96,SSE,147,4.5,5.8,55,0.00,CLR,,0.00,WeatherDisplay:10.37,2013-04-17 16:04:00,
2013-04-17 11:09:00,77.4,58.9,29.96,SSE,150,4.9,6.3,53,0.00,CLR,,0.00,WeatherDisplay:10.37,2013-04-17 16:09:00,
2013-04-17 11:14:00,78.1,59.0,29.96,SSW,208,4.5,5.8,52,0.00,CLR,,0.00,WeatherDisplay:10.37,2013-04-17 16:14:00,
2013-04-17 11:19:00,78.4,58.8,29.96,SSW,210,2.2,5.8,51,0.00,CLR,,0.00,WeatherDisplay:10.37,2013-04-17 16:19:00,
2013-04-17 11:24:00,78.6,59.0,29.96,SSE,157,3.6,3.6,51,0.00,CLR,,0.00,WeatherDisplay:10.37,2013-04-17 16:24:00,
2013-04-17 11:29:00,79.0,58.2,29.96,SSW,210,4.9,5.8,49,0.00,CLR,,0.00,WeatherDisplay:10.37,2013-04-17 16:29:00,
2013-04-17 11:34:00,79.2,58.4,29.93,SW,236,4.5,5.8,49,0.00,CLR,,0.00,WeatherDisplay:10.37,2013-04-17 16:34:00,
2013-04-17 11:39:00,79.9,59.0,29.93,SW,217,5.4,8.1,49,0.00,CLR,,0.00,WeatherDisplay:10.37,2013-04-17 16:39:00,
2013-04-17 11:44:00,81.0,59.4,29.93,SSW,198,4.9,10.4,48,0.00,CLR,,0.00,WeatherDisplay:10.37,2013-04-17 16:44:00,
2013-04-17 11:49:00,81.7,59.5,29.93,ESE,105,4.5,8.1,47,0.00,CLR,,0.00,WeatherDisplay:10.37,2013-04-17 16:49:00,
2013-04-17 11:54:00,82.2,59.4,29.93,West,262,4.9,11.5,46,0.00,CLR,,0.00,WeatherDisplay:10.37,2013-04-17 16:54:00,
2013-04-17 11:59:00,82.4,58.9,29.93,SW,230,4.9,5.8,45,0.00,CLR,,0.00,WeatherDisplay:10.37,2013-04-17 16:59:00,
2013-04-17 12:04:00,82.4,58.9,29.93,South,191,5.4,8.1,45,0.00,CLR,,0.00,WeatherDisplay:10.37,2013-04-17 17:04:00,
2013-04-17 12:09:00,82.2,59.4,29.93,West,280,5.4,6.9,46,0.00,CLR,,0.00,WeatherDisplay:10.37,2013-04-17 17:09:00,
2013-04-17 12:14:00,82.0,59.2,29.93,SSE,159,4.9,5.8,46,0.00,CLR,,0.00,WeatherDisplay:10.37,2013-04-17 17:14:00,
2013-04-17 12:19:00,81.7,58.9,29.93,SSW,208,7.2,9.2,46,0.00,CLR,,0.00,WeatherDisplay:10.37,2013-04-17 17:19:00,
2013-04-17 12:24:00,81.7,58.9,29.93,SSW,206,4.0,8.1,46,0.00,CLR,,0.00,WeatherDisplay:10.37,2013-04-17 17:24:00,
2013-04-17 12:29:00,82.4,58.9,29.93,SE,142,3.6,5.8,45,0.00,CLR,,0.00,WeatherDisplay:10.37,2013-04-17 17:29:00,
2013-04-17 12:34:00,82.9,59.4,29.93,South,179,4.9,5.8,45,0.00,CLR,,0.00,WeatherDisplay:10.37,2013-04-17 17:34:00,
2013-04-17 12:39:00,83.1,59.6,29.93,SSE,152,5.8,9.2,45,0.00,CLR,,0.00,WeatherDisplay:10.37,2013-04-17 17:39:00,
2013-04-17 12:44:00,83.5,59.9,29.93,WNW,287,4.9,8.1,45,0.00,CLR,,0.00,WeatherDisplay:10.37,2013-04-17 17:44:00,
2013-04-17 12:49:00,83.8,60.2,29.93,SW,233,8.3,10.4,45,0.00,CLR,,0.00,WeatherDisplay:10.37,2013-04-17 17:49:00,
2013-04-17 12:54:00,83.8,60.2,29.93,South,169,4.0,5.8,45,0.00,CLR,,0.00,WeatherDisplay:10.37,2013-04-17 17:54:00,
2013-04-17 12:59:00,84.0,60.4,29.93,SE,131,5.4,5.8,45,0.00,CLR,,0.00,WeatherDisplay:10.37,2013-04-17 17:59:00,
2013-04-17 13:04:00,84.7,60.4,29.93,South,186,4.5,5.8,44,0.00,CLR,,0.00,WeatherDisplay:10.37,2013-04-17 18:04:00,
2013-04-17 13:09:00,84.9,59.3,29.90,SSE,165,5.4,8.1,42,0.00,CLR,,0.00,WeatherDisplay:10.37,2013-04-17 18:09:00,
2013-04-17 13:14:00,84.9,59.3,29.90,South,184,4.5,5.8,42,0.00,CLR,,0.00,WeatherDisplay:10.37,2013-04-17 18:14:00,
2013-04-17 13:19:00,84.7,59.1,29.90,South,190,4.9,5.8,42,0.00,CLR,,0.00,WeatherDisplay:10.37,2013-04-17 18:19:00,
2013-04-17 13:24:00,84.7,59.1,29.90,WNW,291,4.0,8.1,42,0.00,CLR,,0.00,WeatherDisplay:10.37,2013-04-17 18:24:00,
2013-04-17 13:29:00,84.7,59.1,29.90,SSW,194,4.0,5.8,42,0.00,CLR,,0.00,WeatherDisplay:10.37,2013-04-17 18:29:00,
2013-04-17 13:34:00,85.1,59.4,29.90,SSE,152,4.9,6.3,42,0.00,CLR,,0.00,WeatherDisplay:10.37,2013-04-17 18:34:00,
2013-04-17 13:39:00,84.9,59.3,29.90,West,268,4.9,9.2,42,0.00,CLR,,0.00,WeatherDisplay:10.37,2013-04-17 18:39:00,
2013-04-17 13:44:00,84.9,59.3,29.90,South,170,5.4,8.1,42,0.00,CLR,,0.00,WeatherDisplay:10.37,2013-04-17 18:44:00,
2013-04-17 13:49:00,84.9,59.3,29.90,South,183,5.8,10.4,42,0.00,CLR,,0.00,WeatherDisplay:10.37,2013-04-17 18:49:00,
2013-04-17 13:54:00,84.7,59.1,29.90,WSW,258,5.4,10.4,42,0.00,CLR,,0.00,WeatherDisplay:10.37,2013-04-17 18:54:00,
2013-04-17 13:59:00,84.7,59.1,29.90,South,186,3.6,5.8,42,0.00,CLR,,0.00,WeatherDisplay:10.37,2013-04-17 18:59:00,
2013-04-17 14:04:00,85.3,59.6,29.90,SSW,193,8.0,9.2,42,0.00,CLR,,0.00,WeatherDisplay:10.37,2013-04-17 19:04:00,
2013-04-17 14:09:00,85.5,59.8,29.90,SSW,197,4.5,8.1,42,0.00,CLR,,0.00,WeatherDisplay:10.37,2013-04-17 19:09:00,
2013-04-17 14:14:00,85.6,59.9,29.90,SE,143,4.9,8.1,42,0.00,CLR,,0.00,WeatherDisplay:10.37,2013-04-17 19:14:00,
2013-04-17 14:19:00,85.3,59.6,29.87,SSE,168,5.8,10.1,42,0.00,CLR,,0.00,WeatherDisplay:10.37,2013-04-17 19:19:00,
2013-04-17 14:24:00,84.7,59.1,29.87,South,190,7.2,9.2,42,0.00,CLR,,0.00,WeatherDisplay:10.37,2013-04-17 19:24:00,
2013-04-17 14:29:00,84.7,59.1,29.87,SW,226,4.5,5.8,42,0.00,CLR,,0.00,WeatherDisplay:10.37,2013-04-17 19:29:00,
2013-04-17 14:34:00,84.7,59.1,29.87,SW,218,6.3,8.1,42,0.00,CLR,,0.00,WeatherDisplay:10.37,2013-04-17 19:34:00,
2013-04-17 14:39:00,84.7,59.1,29.87,SSE,168,4.9,8.1,42,0.00,CLR,,0.00,WeatherDisplay:10.37,2013-04-17 19:39:00,
2013-04-17 14:44:00,84.4,58.8,29.87,WSW,239,4.0,4.6,42,0.00,CLR,,0.00,WeatherDisplay:10.37,2013-04-17 19:44:00,
2013-04-17 14:49:00,84.4,58.8,29.87,WSW,253,5.8,9.2,42,0.00,CLR,,0.00,WeatherDisplay:10.37,2013-04-17 19:49:00,
2013-04-17 14:54:00,84.4,58.8,29.87,SSE,159,7.6,15.0,42,0.00,CLR,,0.00,WeatherDisplay:10.37,2013-04-17 19:54:00,
2013-04-17 14:59:00,84.4,58.8,29.87,SE,129,5.4,8.1,42,0.00,CLR,,0.00,WeatherDisplay:10.37,2013-04-17 19:59:00,
2013-04-17 15:04:00,83.8,58.3,29.87,SE,135,3.6,5.8,42,0.00,CLR,,0.00,WeatherDisplay:10.37,2013-04-17 20:04:00,
2013-04-17 15:09:00,84.2,58.6,29.84,SSE,166,6.3,9.2,42,0.00,CLR,,0.00,WeatherDisplay:10.37,2013-04-17 20:09:00,
2013-04-17 15:14:00,84.4,58.8,29.84,WNW,286,6.7,6.7,42,0.00,CLR,,0.00,WeatherDisplay:10.37,2013-04-17 20:14:00,
2013-04-17 15:19:00,84.4,58.8,29.84,East,98,6.7,8.1,42,0.00,CLR,,0.00,WeatherDisplay:10.37,2013-04-17 20:19:00,
2013-04-17 15:24:00,84.4,58.8,29.84,South,191,6.7,10.4,42,0.00,CLR,,0.00,WeatherDisplay:10.37,2013-04-17 20:24:00,
2013-04-17 15:29:00,84.4,58.8,29.84,SSE,151,3.1,4.6,42,0.00,CLR,,0.00,WeatherDisplay:10.37,2013-04-17 20:29:00,
2013-04-17 15:34:00,84.4,58.8,29.84,South,182,6.3,11.5,42,0.00,CLR,,0.00,WeatherDisplay:10.37,2013-04-17 20:34:00,
2013-04-17 15:39:00,84.4,58.8,29.84,SE,145,8.0,15.0,42,0.00,CLR,,0.00,WeatherDisplay:10.37,2013-04-17 20:39:00,
2013-04-17 15:44:00,84.0,58.5,29.84,South,171,5.8,5.8,42,0.00,CLR,,0.00,WeatherDisplay:10.37,2013-04-17 20:44:00,
2013-04-17 15:49:00,83.8,58.3,29.84,WSW,243,3.6,8.7,42,0.00,CLR,,0.00,WeatherDisplay:10.37,2013-04-17 20:49:00,
2013-04-17 15:54:00,83.7,58.1,29.84,West,278,4.0,8.1,42,0.00,CLR,,0.00,WeatherDisplay:10.37,2013-04-17 20:54:00,
2013-04-17 15:59:00,83.7,58.1,29.84,South,172,4.9,5.8,42,0.00,CLR,,0.00,WeatherDisplay:10.37,2013-04-17 20:59:00,
2013-04-17 16:04:00,83.8,58.3,29.81,SW,220,3.6,5.8,42,0.00,CLR,,0.00,WeatherDisplay:10.37,2013-04-17 21:04:00,
2013-04-17 16:09:00,83.8,58.3,29.81,SSE,167,6.7,9.2,42,0.00,CLR,,0.00,WeatherDisplay:10.37,2013-04-17 21:09:00,
2013-04-17 16:14:00,84.0,58.5,29.81,SSE,149,6.7,15.0,42,0.00,CLR,,0.00,WeatherDisplay:10.37,2013-04-17 21:14:00,
2013-04-17 16:19:00,84.0,58.5,29.81,SSW,206,5.4,8.1,42,0.00,CLR,,0.00,WeatherDisplay:10.37,2013-04-17 21:19:00,
2013-04-17 16:24:00,83.7,58.1,29.81,SSE,167,5.8,8.1,42,0.00,CLR,,0.00,WeatherDisplay:10.37,2013-04-17 21:24:00,
2013-04-17 16:29:00,83.8,58.3,29.81,West,281,4.0,5.8,42,0.00,CLR,,0.00,WeatherDisplay:10.37,2013-04-17 21:29:00,
2013-04-17 16:34:00,84.2,58.6,29.81,SSW,208,5.8,5.8,42,0.00,CLR,,0.00,WeatherDisplay:10.37,2013-04-17 21:34:00,
2013-04-17 16:39:00,84.4,58.8,29.81,West,281,7.2,10.4,42,0.00,CLR,,0.00,WeatherDisplay:10.37,2013-04-17 21:39:00,
2013-04-17 16:44:00,84.0,58.5,29.81,SSW,203,6.3,11.5,42,0.00,CLR,,0.00,WeatherDisplay:10.37,2013-04-17 21:44:00,
2013-04-17 16:49:00,84.2,58.6,29.81,South,189,5.8,9.2,42,0.00,CLR,,0.00,WeatherDisplay:10.37,2013-04-17 21:49:00,
2013-04-17 16:54:00,84.2,56.6,29.81,South,185,8.7,12.7,39,0.00,CLR,,0.00,WeatherDisplay:10.37,2013-04-17 21:54:00,
2013-04-17 16:59:00,84.2,56.6,29.81,South,174,6.7,10.4,39,0.00,CLR,,0.00,WeatherDisplay:10.37,2013-04-17 21:59:00,
2013-04-17 17:04:00,84.4,56.7,29.78,SE,143,4.9,8.1,39,0.00,CLR,,0.00,WeatherDisplay:10.37,2013-04-17 22:04:00,
2013-04-17 17:09:00,84.6,58.9,29.78,SSW,194,6.3,7.6,42,0.00,CLR,,0.00,WeatherDisplay:10.37,2013-04-17 22:09:00,
2013-04-17 17:14:00,84.6,58.9,29.78,ESE,108,5.4,5.8,42,0.00,CLR,,0.00,WeatherDisplay:10.37,2013-04-17 22:14:00,
2013-04-17 17:19:00,84.4,58.8,29.78,SE,137,5.4,6.9,42,0.00,CLR,,0.00,WeatherDisplay:10.37,2013-04-17 22:19:00,
2013-04-17 17:24:00,83.8,58.3,29.78,ENE,77,7.6,8.1,42,0.00,CLR,,0.00,WeatherDisplay:10.37,2013-04-17 22:24:00,
2013-04-17 17:29:00,83.1,57.6,29.78,South,180,2.2,3.5,42,0.00,CLR,,0.00,WeatherDisplay:10.37,2013-04-17 22:29:00,
2013-04-17 17:34:00,82.8,57.3,29.78,SSE,158,5.4,5.8,42,0.00,CLR,,0.00,WeatherDisplay:10.37,2013-04-17 22:34:00,
2013-04-17 17:39:00,82.4,57.0,29.78,SE,128,5.4,10.4,42,0.00,CLR,,0.00,WeatherDisplay:10.37,2013-04-17 22:39:00,
2013-04-17 17:44:00,82.0,57.3,29.78,SW,233,4.5,8.1,43,0.00,CLR,,0.00,WeatherDisplay:10.37,2013-04-17 22:44:00,
2013-04-17 17:49:00,81.5,56.8,29.78,WSW,238,6.7,11.5,43,0.00,CLR,,0.00,WeatherDisplay:10.37,2013-04-17 22:49:00,
2013-04-17 17:54:00,81.1,56.5,29.78,SSE,161,7.6,12.7,43,0.00,CLR,,0.00,WeatherDisplay:10.37,2013-04-17 22:54:00,
2013-04-17 17:59:00,81.0,56.4,29.78,SSE,155,5.8,8.1,43,0.00,CLR,,0.00,WeatherDisplay:10.37,2013-04-17 22:59:00,
2013-04-17 18:04:00,81.0,56.4,29.78,West,259,5.8,5.8,43,0.00,CLR,,0.00,WeatherDisplay:10.37,2013-04-17 23:04:00,
2013-04-17 18:09:00,80.8,56.2,29.78,SSW,193,6.3,11.5,43,0.00,CLR,,0.00,WeatherDisplay:10.37,2013-04-17 23:09:00,
2013-04-17 18:14:00,80.8,56.2,29.78,SSE,154,4.0,8.1,43,0.00,CLR,,0.00,WeatherDisplay:10.37,2013-04-17 23:14:00,
2013-04-17 18:19:00,80.6,56.0,29.78,SE,141,8.7,10.4,43,0.00,CLR,,0.00,WeatherDisplay:10.37,2013-04-17 23:19:00,
2013-04-17 18:24:00,80.8,56.2,29.78,SE,140,3.6,5.8,43,0.00,CLR,,0.00,WeatherDisplay:10.37,2013-04-17 23:24:00,
2013-04-17 18:29:00,80.6,56.0,29.78,SSW,210,6.7,9.2,43,0.00,CLR,,0.00,WeatherDisplay:10.37,2013-04-17 23:29:00,
2013-04-17 18:34:00,80.6,57.3,29.75,ESE,122,6.7,10.4,45,0.00,CLR,,0.00,WeatherDisplay:10.37,2013-04-17 23:34:00,
2013-04-17 18:39:00,80.2,57.6,29.75,South,190,4.9,5.8,46,0.00,CLR,,0.00,WeatherDisplay:10.37,2013-04-17 23:39:00,
2013-04-17 18:44:00,80.1,57.4,29.75,South,169,7.6,10.4,46,0.00,CLR,,0.00,WeatherDisplay:10.37,2013-04-17 23:44:00,
2013-04-17 18:49:00,79.7,57.1,29.75,South,171,4.5,5.8,46,0.00,CLR,,0.00,WeatherDisplay:10.37,2013-04-17 23:49:00,
2013-04-17 18:54:00,79.3,56.8,29.75,SSE,168,4.5,8.1,46,0.00,CLR,,0.00,WeatherDisplay:10.37,2013-04-17 23:54:00,
2013-04-17 18:59:00,79.2,56.6,29.75,SSE,160,6.7,9.2,46,0.00,CLR,,0.00,WeatherDisplay:10.37,2013-04-17 23:59:00,
2013-04-17 19:04:00,78.8,56.3,29.75,SW,219,4.9,8.1,46,0.00,CLR,,0.00,WeatherDisplay:10.37,2013-04-18 00:04:00,
2013-04-17 19:09:00,78.4,56.5,29.75,South,185,4.9,5.8,47,0.00,CLR,,0.00,WeatherDisplay:10.37,2013-04-18 00:09:00,
2013-04-17 19:14:00,78.3,56.4,29.75,South,191,5.4,9.2,47,0.00,CLR,,0.00,WeatherDisplay:10.37,2013-04-18 00:14:00,
2013-04-17 19:19:00,77.9,56.0,29.75,South,188,5.4,8.1,47,0.00,CLR,,0.00,WeatherDisplay:10.37,2013-04-18 00:19:00,
2013-04-17 19:24:00,77.7,55.9,29.75,SSW,192,6.7,10.4,47,0.00,CLR,,0.00,WeatherDisplay:10.37,2013-04-18 00:24:00,
2013-04-17 19:29:00,77.5,55.7,29.75,SSW,205,6.7,9.2,47,0.00,CLR,,0.00,WeatherDisplay:10.37,2013-04-18 00:29:00,
2013-04-17 19:34:00,77.4,55.6,29.75,SSW,212,6.7,8.1,47,0.00,CLR,,0.00,WeatherDisplay:10.37,2013-04-18 00:34:00,
2013-04-17 19:39:00,77.2,55.4,29.75,SSE,165,5.8,10.4,47,0.00,CLR,,0.00,WeatherDisplay:10.37,2013-04-18 00:39:00,
2013-04-17 19:44:00,77.0,55.2,29.75,SSW,199,4.9,9.2,47,0.00,CLR,,0.00,WeatherDisplay:10.37,2013-04-18 00:44:00,
2013-04-17 19:49:00,76.8,55.6,29.75,SSE,157,3.6,5.8,48,0.00,CLR,,0.00,WeatherDisplay:10.37,2013-04-18 00:49:00,
2013-04-17 19:54:00,76.5,55.3,29.75,South,178,4.9,8.1,48,0.00,CLR,,0.00,WeatherDisplay:10.37,2013-04-18 00:54:00,
2013-04-17 19:59:00,76.3,55.1,29.75,SE,138,5.8,8.1,48,0.00,CLR,,0.00,WeatherDisplay:10.37,2013-04-18 00:59:00,
2013-04-17 20:04:00,76.1,55.0,29.75,SSE,152,4.5,6.9,48,0.00,CLR,,0.00,WeatherDisplay:10.37,2013-04-18 01:04:00,
2013-04-17 20:09:00,76.1,55.0,29.75,SE,138,4.5,5.8,48,0.00,CLR,,0.00,WeatherDisplay:10.37,2013-04-18 01:09:00,
2013-04-17 20:14:00,75.9,54.8,29.75,SSE,159,3.6,8.1,48,0.00,CLR,,0.00,WeatherDisplay:10.37,2013-04-18 01:14:00,
2013-04-17 20:19:00,75.7,54.7,29.75,SW,217,3.1,3.5,48,0.00,CLR,,0.00,WeatherDisplay:10.37,2013-04-18 01:19:00,
2013-04-17 20:24:00,75.7,54.7,29.75,WSW,252,4.5,5.8,48,0.00,CLR,,0.00,WeatherDisplay:10.37,2013-04-18 01:24:00,
2013-04-17 20:29:00,75.7,54.7,29.75,SSE,156,4.5,5.8,48,0.00,CLR,,0.00,WeatherDisplay:10.37,2013-04-18 01:29:00,
2013-04-17 20:34:00,75.6,54.5,29.75,South,172,3.6,4.6,48,0.00,CLR,,0.00,WeatherDisplay:10.37,2013-04-18 01:34:00,
2013-04-17 20:39:00,75.6,54.5,29.75,South,185,5.4,5.8,48,0.00,CLR,,0.00,WeatherDisplay:10.37,2013-04-18 01:39:00,
2013-04-17 20:44:00,75.4,54.9,29.75,South,187,4.5,5.8,49,0.00,CLR,,0.00,WeatherDisplay:10.37,2013-04-18 01:44:00,
2013-04-17 20:49:00,75.4,54.9,29.78,South,170,3.1,5.8,49,0.00,CLR,,0.00,WeatherDisplay:10.37,2013-04-18 01:49:00,
2013-04-17 20:54:00,75.4,54.9,29.78,SSE,156,4.9,5.8,49,0.00,CLR,,0.00,WeatherDisplay:10.37,2013-04-18 01:54:00,
2013-04-17 20:59:00,75.2,54.7,29.78,SE,138,3.1,3.5,49,0.00,CLR,,0.00,WeatherDisplay:10.37,2013-04-18 01:59:00,
2013-04-17 21:04:00,75.2,54.7,29.75,SSE,159,3.6,5.8,49,0.00,CLR,,0.00,WeatherDisplay:10.37,2013-04-18 02:04:00,
2013-04-17 21:09:00,75.0,54.6,29.75,SSW,194,2.7,5.8,49,0.00,CLR,,0.00,WeatherDisplay:10.37,2013-04-18 02:09:00,
2013-04-17 21:14:00,75.0,54.6,29.75,SSW,196,3.1,4.9,49,0.00,CLR,,0.00,WeatherDisplay:10.37,2013-04-18 02:14:00,
2013-04-17 21:19:00,74.8,54.9,29.75,SSW,209,4.9,5.8,50,0.00,CLR,,0.00,WeatherDisplay:10.37,2013-04-18 02:19:00,
2013-04-17 21:24:00,74.8,54.9,29.75,South,178,3.1,5.8,50,0.00,CLR,,0.00,WeatherDisplay:10.37,2013-04-18 02:24:00,
2013-04-17 21:29:00,74.7,54.8,29.75,SE,141,4.9,5.8,50,0.00,CLR,,0.00,WeatherDisplay:10.37,2013-04-18 02:29:00,
2013-04-17 21:34:00,74.8,54.9,29.75,SSW,205,4.5,5.8,50,0.00,CLR,,0.00,WeatherDisplay:10.37,2013-04-18 02:34:00,
2013-04-17 21:39:00,74.8,54.9,29.75,SE,145,3.6,8.1,50,0.00,CLR,,0.00,WeatherDisplay:10.37,2013-04-18 02:39:00,
2013-04-17 21:44:00,74.8,54.9,29.75,SSW,210,5.8,9.2,50,0.00,CLR,,0.00,WeatherDisplay:10.37,2013-04-18 02:44:00,
2013-04-17 21:49:00,75.0,55.1,29.75,South,174,4.0,5.8,50,0.00,CLR,,0.00,WeatherDisplay:10.37,2013-04-18 02:49:00,
2013-04-17 21:54:00,74.8,54.9,29.75,SSE,158,4.0,5.8,50,0.00,CLR,,0.00,WeatherDisplay:10.37,2013-04-18 02:54:00,
2013-04-17 21:59:00,74.8,54.9,29.75,South,181,3.6,5.8,50,0.00,CLR,,0.00,WeatherDisplay:10.37,2013-04-18 02:59:00,
2013-04-17 22:04:00,74.8,54.9,29.75,SE,133,0.0,3.5,50,0.00,CLR,,0.00,WeatherDisplay:10.37,2013-04-18 03:04:00,
2013-04-17 22:09:00,74.7,54.8,29.75,SE,143,3.1,3.5,50,0.00,CLR,,0.00,WeatherDisplay:10.37,2013-04-18 03:09:00,
2013-04-17 22:14:00,74.7,54.8,29.75,SSE,155,4.9,8.1,50,0.00,CLR,,0.00,WeatherDisplay:10.37,2013-04-18 03:14:00,
2013-04-17 22:19:00,74.5,54.6,29.75,South,182,3.6,5.8,50,0.00,CLR,,0.00,WeatherDisplay:10.37,2013-04-18 03:19:00,
2013-04-17 22:24:00,74.5,55.2,29.75,SE,144,4.0,5.8,51,0.00,CLR,,0.00,WeatherDisplay:10.37,2013-04-18 03:24:00,
2013-04-17 22:29:00,74.3,55.0,29.75,SE,140,4.9,5.8,51,0.00,CLR,,0.00,WeatherDisplay:10.37,2013-04-18 03:29:00,
2013-04-17 22:34:00,74.3,55.0,29.75,SSE,166,4.9,8.1,51,0.00,CLR,,0.00,WeatherDisplay:10.37,2013-04-18 03:34:00,
2013-04-17 22:39:00,74.3,55.0,29.75,SSE,167,4.0,6.9,51,0.00,CLR,,0.00,WeatherDisplay:10.37,2013-04-18 03:39:00,
2013-04-17 22:44:00,74.3,55.0,29.75,SSW,194,5.8,8.1,51,0.00,CLR,,0.00,WeatherDisplay:10.37,2013-04-18 03:44:00,
2013-04-17 22:49:00,74.3,55.0,29.75,SSE,163,3.1,8.1,51,0.00,CLR,,0.00,WeatherDisplay:10.37,2013-04-18 03:49:00,
2013-04-17 22:54:00,74.3,55.0,29.75,SSE,166,2.7,3.5,51,0.00,CLR,,0.00,WeatherDisplay:10.37,2013-04-18 03:54:00,
2013-04-17 22:59:00,74.3,55.0,29.75,SSE,159,4.0,5.8,51,0.00,CLR,,0.00,WeatherDisplay:10.37,2013-04-18 03:59:00,
2013-04-17 23:01:00,74.3,55.0,29.75,SE,129,5.8,9.2,51,0.00,CLR,,0.00,WeatherDisplay:10.37,2013-04-18 04:01:00,
2013-04-17 23:02:00,74.3,55.0,29.75,South,174,5.4,9.2,51,0.00,CLR,,0.00,WeatherDisplay:10.37,2013-04-18 04:02:00,
2013-04-17 23:05:00,74.3,55.0,29.75,SSE,147,5.8,10.4,51,0.00,CLR,,0.00,WeatherDisplay:10.37,2013-04-18 04:05:00,
2013-04-17 23:08:00,74.3,55.0,29.75,SSW,207,3.1,3.5,51,0.00,CLR,,0.00,WeatherDisplay:10.37,2013-04-18 04:08:00,
2013-04-17 23:13:00,74.3,55.0,29.75,SSE,150,3.6,5.8,51,0.00,CLR,,0.00,WeatherDisplay:10.37,2013-04-18 04:13:00,
2013-04-17 23:18:00,74.3,55.0,29.75,SSW,192,5.8,8.1,51,0.00,CLR,,0.00,WeatherDisplay:10.37,2013-04-18 04:18:00,
2013-04-17 23:23:00,74.3,55.5,29.72,SE,137,2.7,4.6,52,0.00,CLR,,0.00,WeatherDisplay:10.37,2013-04-18 04:23:00,
2013-04-17 23:28:00,74.1,55.4,29.72,SE,146,3.6,5.8,52,0.00,CLR,,0.00,WeatherDisplay:10.37,2013-04-18 04:28:00,
2013-04-17 23:33:00,74.1,55.4,29.72,SSE,167,5.4,5.8,52,0.00,CLR,,0.00,WeatherDisplay:10.37,2013-04-18 04:33:00,
2013-04-17 23:38:00,74.1,55.4,29.72,SE,126,5.4,8.1,52,0.00,CLR,,0.00,WeatherDisplay:10.37,2013-04-18 04:38:00,
2013-04-17 23:43:00,74.3,55.5,29.72,SSE,160,5.4,5.8,52,0.00,CLR,,0.00,WeatherDisplay:10.37,2013-04-18 04:43:00,
2013-04-17 23:48:00,74.3,55.5,29.72,SSW,196,6.7,8.1,52,0.00,CLR,,0.00,WeatherDisplay:10.37,2013-04-18 04:48:00,
2013-04-17 23:53:00,74.1,55.4,29.72,SE,142,3.6,5.8,52,0.00,CLR,,0.00,WeatherDisplay:10.37,2013-04-18 04:53:00,
2013-04-17 23:58:00,74.1,55.9,29.72,SSE,157,4.5,5.8,53,0.00,CLR,,0.00,WeatherDisplay:10.37,2013-04-18 04:58:00,